sensor_id;sensor_type;location;lat;lon;timestamp;pressure;altitude;pressure_sealevel;temperature;humidity
2000;BME280;1001;48.87406500;9.59633600;2023-04-02T00:01:27;94268.50;;;7.31;100.00
2000;BME280;1001;48.87406500;9.59633600;2023-04-02T00:04:15;94271.69;;;7.33;100.00
2000;BME280;1001;48.87406500;9.59633600;2023-04-02T00:06:48;94281.97;;;7.28;100.00
2000;BME280;1001;48.87406500;9.59633600;2023-04-02T00:09:35;94273.94;;;7.30;100.00
2000;BME280;1001;48.87406500;9.59633600;2023-04-02T00:12:18;94282.31;;;7.32;100.00
2000;BME280;1001;48.87406500;9.59633600;2023-04-02T00:14:48;94283.91;;;7.33;100.00
2000;BME280;1001;48.87406500;9.59633600;2023-04-02T00:17:16;94280.63;;;7.26;100.00
2000;BME280;1001;48.87406500;9.59633600;2023-04-02T00:19:47;94287.28;;;7.22;100.00
2000;BME280;1001;48.87406500;9.59633600;2023-04-02T00:22:17;94287.88;;;7.24;100.00
2000;BME280;1001;48.87406500;9.59633600;2023-04-02T00:24:44;94290.22;;;7.25;100.00
2000;BME280;1001;48.87406500;9.59633600;2023-04-02T00:27:12;94292.59;;;7.27;100.00
2000;BME280;1001;48.87406500;9.59633600;2023-04-02T00:29:46;94293.63;;;7.26;100.00
2000;BME280;1001;48.87406500;9.59633600;2023-04-02T00:32:17;94282.31;;;7.20;100.00
2000;BME280;1001;48.87406500;9.59633600;2023-04-02T00:34:46;94287.19;;;7.17;100.00
2000;BME280;1001;48.87406500;9.59633600;2023-04-02T00:37:15;94287.53;;;7.20;100.00
2000;BME280;1001;48.87406500;9.59633600;2023-04-02T00:39:49;94293.41;;;7.16;100.00
2000;BME280;1001;48.87406500;9.59633600;2023-04-02T00:42:16;94291.59;;;7.16;100.00
2000;BME280;1001;48.87406500;9.59633600;2023-04-02T00:44:45;94288.19;;;7.16;100.00
2000;BME280;1001;48.87406500;9.59633600;2023-04-02T00:47:17;94294.41;;;7.15;100.00
2000;BME280;1001;48.87406500;9.59633600;2023-04-02T00:49:46;94294.63;;;7.13;100.00
2000;BME280;1001;48.87406500;9.59633600;2023-04-02T00:52:16;94301.66;;;7.13;100.00
2000;BME280;1001;48.87406500;9.59633600;2023-04-02T00:54:47;94290.94;;;7.09;100.00
2000;BME280;1001;48.87406500;9.59633600;2023-04-02T00:57:17;94292.28;;;7.12;100.00
2000;BME280;1001;48.87406500;9.59633600;2023-04-02T00:59:54;94294.88;;;7.12;100.00
2000;BME280;1001;48.87406500;9.59633600;2023-04-02T01:02:25;94293.66;;;7.03;100.00
2000;BME280;1001;48.87406500;9.59633600;2023-04-02T01:04:54;94286.41;;;7.05;100.00
2000;BME280;1001;48.87406500;9.59633600;2023-04-02T01:07:45;94291.13;;;6.96;100.00
2000;BME280;1001;48.87406500;9.59633600;2023-04-02T01:10:34;94297.47;;;7.00;100.00
2000;BME280;1001;48.87406500;9.59633600;2023-04-02T01:13:11;94293.28;;;6.99;100.00
2000;BME280;1001;48.87406500;9.59633600;2023-04-02T01:15:42;94298.72;;;6.98;100.00
2000;BME280;1001;48.87406500;9.59633600;2023-04-02T01:18:23;94304.25;;;7.01;100.00
2000;BME280;1001;48.87406500;9.59633600;2023-04-02T01:21:15;94308.88;;;6.99;100.00
2000;BME280;1001;48.87406500;9.59633600;2023-04-02T01:23:52;94305.28;;;7.00;100.00
2000;BME280;1001;48.87406500;9.59633600;2023-04-02T01:26:33;94298.13;;;6.96;100.00
2000;BME280;1001;48.87406500;9.59633600;2023-04-02T01:29:06;94308.44;;;7.02;100.00
2000;BME280;1001;48.87406500;9.59633600;2023-04-02T01:31:34;94313.53;;;6.97;100.00
2000;BME280;1001;48.87406500;9.59633600;2023-04-02T01:34:05;94311.59;;;7.04;100.00
2000;BME280;1001;48.87406500;9.59633600;2023-04-02T01:36:39;94312.41;;;7.05;100.00
2000;BME280;1001;48.87406500;9.59633600;2023-04-02T01:39:16;94315.09;;;6.98;100.00
2000;BME280;1001;48.87406500;9.59633600;2023-04-02T01:41:49;94314.09;;;6.99;100.00
2000;BME280;1001;48.87406500;9.59633600;2023-04-02T01:44:24;94311.47;;;6.99;100.00
2000;BME280;1001;48.87406500;9.59633600;2023-04-02T01:46:54;94321.31;;;6.97;100.00
2000;BME280;1001;48.87406500;9.59633600;2023-04-02T01:49:25;94328.09;;;6.98;100.00
2000;BME280;1001;48.87406500;9.59633600;2023-04-02T01:51:53;94328.88;;;6.99;100.00
2000;BME280;1001;48.87406500;9.59633600;2023-04-02T01:54:22;94334.50;;;6.96;100.00
2000;BME280;1001;48.87406500;9.59633600;2023-04-02T01:56:50;94332.72;;;6.96;100.00
2000;BME280;1001;48.87406500;9.59633600;2023-04-02T01:59:19;94331.34;;;6.94;100.00
2000;BME280;1001;48.87406500;9.59633600;2023-04-02T02:01:52;94331.03;;;6.90;100.00
2000;BME280;1001;48.87406500;9.59633600;2023-04-02T02:04:22;94333.41;;;6.92;100.00
2000;BME280;1001;48.87406500;9.59633600;2023-04-02T02:06:49;94329.44;;;6.89;100.00
2000;BME280;1001;48.87406500;9.59633600;2023-04-02T02:09:18;94336.22;;;6.90;100.00
2000;BME280;1001;48.87406500;9.59633600;2023-04-02T02:11:49;94342.00;;;6.92;100.00
2000;BME280;1001;48.87406500;9.59633600;2023-04-02T02:14:17;94335.44;;;6.90;100.00
2000;BME280;1001;48.87406500;9.59633600;2023-04-02T02:16:45;94336.78;;;6.92;100.00
2000;BME280;1001;48.87406500;9.59633600;2023-04-02T02:19:21;94349.53;;;6.94;100.00
2000;BME280;1001;48.87406500;9.59633600;2023-04-02T02:21:51;94344.16;;;6.95;100.00
2000;BME280;1001;48.87406500;9.59633600;2023-04-02T02:24:22;94353.50;;;6.96;100.00
2000;BME280;1001;48.87406500;9.59633600;2023-04-02T02:26:57;94351.38;;;6.93;100.00
2000;BME280;1001;48.87406500;9.59633600;2023-04-02T02:29:27;94361.41;;;6.90;100.00
2000;BME280;1001;48.87406500;9.59633600;2023-04-02T02:31:55;94365.38;;;6.92;100.00
2000;BME280;1001;48.87406500;9.59633600;2023-04-02T02:34:30;94359.75;;;6.95;100.00
2000;BME280;1001;48.87406500;9.59633600;2023-04-02T02:37:03;94358.50;;;6.98;100.00
2000;BME280;1001;48.87406500;9.59633600;2023-04-02T02:39:35;94360.19;;;6.92;100.00
2000;BME280;1001;48.87406500;9.59633600;2023-04-02T02:42:07;94360.28;;;6.85;100.00
2000;BME280;1001;48.87406500;9.59633600;2023-04-02T02:44:40;94356.53;;;6.81;100.00
2000;BME280;1001;48.87406500;9.59633600;2023-04-02T02:47:12;94364.13;;;6.83;100.00
2000;BME280;1001;48.87406500;9.59633600;2023-04-02T02:49:42;94369.44;;;6.88;100.00
2000;BME280;1001;48.87406500;9.59633600;2023-04-02T02:52:16;94365.59;;;6.91;100.00
2000;BME280;1001;48.87406500;9.59633600;2023-04-02T02:54:44;94369.88;;;6.85;100.00
2000;BME280;1001;48.87406500;9.59633600;2023-04-02T02:57:15;94364.13;;;6.83;100.00
2000;BME280;1001;48.87406500;9.59633600;2023-04-02T02:59:43;94364.91;;;6.83;100.00
2000;BME280;1001;48.87406500;9.59633600;2023-04-02T03:02:13;94370.56;;;6.92;100.00
2000;BME280;1001;48.87406500;9.59633600;2023-04-02T03:04:46;94377.81;;;6.90;100.00
2000;BME280;1001;48.87406500;9.59633600;2023-04-02T03:07:13;94377.13;;;6.95;100.00
2000;BME280;1001;48.87406500;9.59633600;2023-04-02T03:09:45;94373.50;;;6.96;100.00
2000;BME280;1001;48.87406500;9.59633600;2023-04-02T03:12:27;94382.22;;;7.01;100.00
2000;BME280;1001;48.87406500;9.59633600;2023-04-02T03:15:02;94380.84;;;6.99;100.00
2000;BME280;1001;48.87406500;9.59633600;2023-04-02T03:17:33;94395.22;;;7.01;100.00
2000;BME280;1001;48.87406500;9.59633600;2023-04-02T03:20:10;94392.84;;;7.00;100.00
2000;BME280;1001;48.87406500;9.59633600;2023-04-02T03:22:42;94392.84;;;6.88;100.00
2000;BME280;1001;48.87406500;9.59633600;2023-04-02T03:25:19;94398.50;;;6.97;100.00
2000;BME280;1001;48.87406500;9.59633600;2023-04-02T03:27:48;94399.28;;;6.97;100.00
2000;BME280;1001;48.87406500;9.59633600;2023-04-02T03:30:27;94401.22;;;7.02;100.00
2000;BME280;1001;48.87406500;9.59633600;2023-04-02T03:32:57;94403.91;;;6.95;100.00
2000;BME280;1001;48.87406500;9.59633600;2023-04-02T03:35:32;94412.84;;;6.99;100.00
2000;BME280;1001;48.87406500;9.59633600;2023-04-02T03:38:02;94410.25;;;6.99;100.00
2000;BME280;1001;48.87406500;9.59633600;2023-04-02T03:40:33;94413.97;;;7.03;100.00
2000;BME280;1001;48.87406500;9.59633600;2023-04-02T03:43:03;94413.22;;;7.03;100.00
2000;BME280;1001;48.87406500;9.59633600;2023-04-02T03:45:34;94415.00;;;7.02;100.00
2000;BME280;1001;48.87406500;9.59633600;2023-04-02T03:48:03;94411.16;;;7.05;100.00
2000;BME280;1001;48.87406500;9.59633600;2023-04-02T03:50:39;94412.31;;;7.09;100.00
2000;BME280;1001;48.87406500;9.59633600;2023-04-02T03:53:11;94418.19;;;7.16;100.00
2000;BME280;1001;48.87406500;9.59633600;2023-04-02T03:55:39;94419.78;;;7.17;100.00
2000;BME280;1001;48.87406500;9.59633600;2023-04-02T03:58:10;94414.53;;;7.05;100.00
2000;BME280;1001;48.87406500;9.59633600;2023-04-02T04:00:45;94420.09;;;7.09;100.00
2000;BME280;1001;48.87406500;9.59633600;2023-04-02T04:03:17;94423.59;;;7.03;100.00
2000;BME280;1001;48.87406500;9.59633600;2023-04-02T04:05:48;94425.53;;;7.07;100.00
2000;BME280;1001;48.87406500;9.59633600;2023-04-02T04:08:18;94420.34;;;7.07;100.00
2000;BME280;1001;48.87406500;9.59633600;2023-04-02T04:10:50;94427.09;;;7.08;100.00
2000;BME280;1001;48.87406500;9.59633600;2023-04-02T04:13:21;94434.56;;;7.05;100.00
2000;BME280;1001;48.87406500;9.59633600;2023-04-02T04:15:54;94434.09;;;7.08;100.00
2000;BME280;1001;48.87406500;9.59633600;2023-04-02T04:18:30;94437.06;;;7.11;100.00
2000;BME280;1001;48.87406500;9.59633600;2023-04-02T04:21:05;94441.69;;;7.09;100.00
2000;BME280;1001;48.87406500;9.59633600;2023-04-02T04:23:38;94445.84;;;7.10;100.00
2000;BME280;1001;48.87406500;9.59633600;2023-04-02T04:26:14;94446.75;;;7.04;100.00
2000;BME280;1001;48.87406500;9.59633600;2023-04-02T04:28:51;94448.69;;;7.09;100.00
2000;BME280;1001;48.87406500;9.59633600;2023-04-02T04:31:26;94451.28;;;7.09;100.00
2000;BME280;1001;48.87406500;9.59633600;2023-04-02T04:33:59;94461.13;;;7.07;100.00
2000;BME280;1001;48.87406500;9.59633600;2023-04-02T04:36:39;94454.13;;;7.07;100.00
2000;BME280;1001;48.87406500;9.59633600;2023-04-02T04:39:21;94465.19;;;7.03;100.00
2000;BME280;1001;48.87406500;9.59633600;2023-04-02T04:41:50;94467.31;;;7.06;100.00
2000;BME280;1001;48.87406500;9.59633600;2023-04-02T04:44:21;94468.25;;;7.11;100.00
2000;BME280;1001;48.87406500;9.59633600;2023-04-02T04:46:52;94474.03;;;7.13;100.00
2000;BME280;1001;48.87406500;9.59633600;2023-04-02T04:49:24;94479.78;;;7.15;100.00
2000;BME280;1001;48.87406500;9.59633600;2023-04-02T04:51:57;94483.41;;;7.14;100.00
2000;BME280;1001;48.87406500;9.59633600;2023-04-02T04:54:25;94485.22;;;7.14;100.00
2000;BME280;1001;48.87406500;9.59633600;2023-04-02T04:56:55;94487.38;;;7.17;100.00
2000;BME280;1001;48.87406500;9.59633600;2023-04-02T04:59:26;94490.75;;;7.17;100.00
2000;BME280;1001;48.87406500;9.59633600;2023-04-02T05:01:57;94494.16;;;7.18;100.00
2000;BME280;1001;48.87406500;9.59633600;2023-04-02T05:04:30;94490.44;;;7.25;100.00
2000;BME280;1001;48.87406500;9.59633600;2023-04-02T05:07:04;94498.91;;;7.21;100.00
2000;BME280;1001;48.87406500;9.59633600;2023-04-02T05:09:35;94498.47;;;7.24;100.00
2000;BME280;1001;48.87406500;9.59633600;2023-04-02T05:12:09;94503.06;;;7.22;100.00
2000;BME280;1001;48.87406500;9.59633600;2023-04-02T05:14:45;94503.44;;;7.25;100.00
2000;BME280;1001;48.87406500;9.59633600;2023-04-02T05:17:17;94503.69;;;7.24;100.00
2000;BME280;1001;48.87406500;9.59633600;2023-04-02T05:19:50;94512.16;;;7.31;100.00
2000;BME280;1001;48.87406500;9.59633600;2023-04-02T05:22:28;94508.50;;;7.20;100.00
2000;BME280;1001;48.87406500;9.59633600;2023-04-02T05:25:09;94512.25;;;7.24;100.00
2000;BME280;1001;48.87406500;9.59633600;2023-04-02T05:27:45;94515.06;;;7.23;100.00
2000;BME280;1001;48.87406500;9.59633600;2023-04-02T05:30:31;94523.25;;;7.26;100.00
2000;BME280;1001;48.87406500;9.59633600;2023-04-02T05:33:02;94527.97;;;7.29;100.00
2000;BME280;1001;48.87406500;9.59633600;2023-04-02T05:35:34;94522.88;;;7.23;100.00
2000;BME280;1001;48.87406500;9.59633600;2023-04-02T05:38:04;94527.84;;;7.24;100.00
2000;BME280;1001;48.87406500;9.59633600;2023-04-02T05:40:34;94530.38;;;7.31;100.00
2000;BME280;1001;48.87406500;9.59633600;2023-04-02T05:43:06;94535.34;;;7.32;100.00
2000;BME280;1001;48.87406500;9.59633600;2023-04-02T05:45:35;94544.28;;;7.36;100.00
2000;BME280;1001;48.87406500;9.59633600;2023-04-02T05:48:08;94540.22;;;7.40;100.00
2000;BME280;1001;48.87406500;9.59633600;2023-04-02T05:50:43;94542.59;;;7.42;100.00
2000;BME280;1001;48.87406500;9.59633600;2023-04-02T05:53:17;94547.16;;;7.58;100.00
2000;BME280;1001;48.87406500;9.59633600;2023-04-02T05:55:52;94546.03;;;7.54;100.00
2000;BME280;1001;48.87406500;9.59633600;2023-04-02T05:58:26;94561.28;;;7.62;100.00
2000;BME280;1001;48.87406500;9.59633600;2023-04-02T06:03:57;94568.78;;;7.70;100.00
2000;BME280;1001;48.87406500;9.59633600;2023-04-02T06:06:39;94565.50;;;7.75;100.00
2000;BME280;1001;48.87406500;9.59633600;2023-04-02T06:09:12;94573.13;;;7.88;100.00
2000;BME280;1001;48.87406500;9.59633600;2023-04-02T06:11:43;94571.75;;;7.85;100.00
2000;BME280;1001;48.87406500;9.59633600;2023-04-02T06:14:12;94574.13;;;7.87;100.00
2000;BME280;1001;48.87406500;9.59633600;2023-04-02T06:16:39;94583.06;;;7.91;100.00
2000;BME280;1001;48.87406500;9.59633600;2023-04-02T06:19:10;94586.25;;;7.93;100.00
2000;BME280;1001;48.87406500;9.59633600;2023-04-02T06:21:42;94594.06;;;7.93;100.00
2000;BME280;1001;48.87406500;9.59633600;2023-04-02T06:24:12;94586.25;;;7.93;100.00
2000;BME280;1001;48.87406500;9.59633600;2023-04-02T06:26:43;94588.97;;;7.98;100.00
2000;BME280;1001;48.87406500;9.59633600;2023-04-02T06:29:17;94600.88;;;8.05;100.00
2000;BME280;1001;48.87406500;9.59633600;2023-04-02T06:31:49;94602.78;;;8.10;100.00
2000;BME280;1001;48.87406500;9.59633600;2023-04-02T06:34:18;94603.84;;;8.20;100.00
2000;BME280;1001;48.87406500;9.59633600;2023-04-02T06:36:46;94609.06;;;8.32;100.00
2000;BME280;1001;48.87406500;9.59633600;2023-04-02T06:39:17;94607.59;;;8.36;100.00
2000;BME280;1001;48.87406500;9.59633600;2023-04-02T06:41:53;94607.72;;;8.30;100.00
2000;BME280;1001;48.87406500;9.59633600;2023-04-02T06:44:23;94607.47;;;8.31;100.00
2000;BME280;1001;48.87406500;9.59633600;2023-04-02T06:46:53;94613.72;;;8.42;100.00
2000;BME280;1001;48.87406500;9.59633600;2023-04-02T06:49:24;94629.09;;;8.43;100.00
2000;BME280;1001;48.87406500;9.59633600;2023-04-02T06:51:53;94630.81;;;8.49;100.00
2000;BME280;1001;48.87406500;9.59633600;2023-04-02T06:54:22;94641.81;;;8.51;100.00
2000;BME280;1001;48.87406500;9.59633600;2023-04-02T06:56:50;94640.91;;;8.46;100.00
2000;BME280;1001;48.87406500;9.59633600;2023-04-02T06:59:18;94646.22;;;8.51;100.00
2000;BME280;1001;48.87406500;9.59633600;2023-04-02T07:01:47;94645.66;;;8.37;100.00
2000;BME280;1001;48.87406500;9.59633600;2023-04-02T07:04:17;94655.53;;;8.35;100.00
2000;BME280;1001;48.87406500;9.59633600;2023-04-02T07:06:45;94657.53;;;8.45;100.00
2000;BME280;1001;48.87406500;9.59633600;2023-04-02T07:09:12;94660.38;;;8.43;100.00
2000;BME280;1001;48.87406500;9.59633600;2023-04-02T07:11:40;94662.41;;;8.41;100.00
2000;BME280;1001;48.87406500;9.59633600;2023-04-02T07:14:09;94663.22;;;8.42;100.00
2000;BME280;1001;48.87406500;9.59633600;2023-04-02T07:16:36;94668.06;;;8.50;100.00
2000;BME280;1001;48.87406500;9.59633600;2023-04-02T07:19:03;94665.13;;;8.46;100.00
2000;BME280;1001;48.87406500;9.59633600;2023-04-02T07:21:30;94669.22;;;8.42;100.00
2000;BME280;1001;48.87406500;9.59633600;2023-04-02T07:23:56;94677.13;;;8.36;100.00
2000;BME280;1001;48.87406500;9.59633600;2023-04-02T07:26:25;94679.06;;;8.40;100.00
2000;BME280;1001;48.87406500;9.59633600;2023-04-02T07:28:54;94687.47;;;8.54;100.00
2000;BME280;1001;48.87406500;9.59633600;2023-04-02T07:31:22;94691.88;;;8.65;100.00
2000;BME280;1001;48.87406500;9.59633600;2023-04-02T07:33:50;94696.78;;;8.73;100.00
2000;BME280;1001;48.87406500;9.59633600;2023-04-02T07:36:19;94692.44;;;8.78;100.00
2000;BME280;1001;48.87406500;9.59633600;2023-04-02T07:38:46;94698.56;;;8.84;100.00
2000;BME280;1001;48.87406500;9.59633600;2023-04-02T07:41:12;94700.25;;;8.90;100.00
2000;BME280;1001;48.87406500;9.59633600;2023-04-02T07:43:40;94704.09;;;8.87;100.00
2000;BME280;1001;48.87406500;9.59633600;2023-04-02T07:46:09;94698.91;;;8.87;100.00
2000;BME280;1001;48.87406500;9.59633600;2023-04-02T07:48:36;94705.47;;;8.78;100.00
2000;BME280;1001;48.87406500;9.59633600;2023-04-02T07:51:05;94707.97;;;8.97;100.00
2000;BME280;1001;48.87406500;9.59633600;2023-04-02T07:53:39;94718.50;;;9.02;100.00
2000;BME280;1001;48.87406500;9.59633600;2023-04-02T07:56:06;94716.25;;;9.05;100.00
2000;BME280;1001;48.87406500;9.59633600;2023-04-02T07:58:33;94724.75;;;9.12;100.00
2000;BME280;1001;48.87406500;9.59633600;2023-04-02T08:01:00;94726.41;;;9.18;100.00
2000;BME280;1001;48.87406500;9.59633600;2023-04-02T08:03:29;94730.50;;;9.26;100.00
2000;BME280;1001;48.87406500;9.59633600;2023-04-02T08:05:57;94736.66;;;9.20;100.00
2000;BME280;1001;48.87406500;9.59633600;2023-04-02T08:08:24;94738.78;;;9.23;100.00
2000;BME280;1001;48.87406500;9.59633600;2023-04-02T08:10:51;94739.13;;;9.26;100.00
2000;BME280;1001;48.87406500;9.59633600;2023-04-02T08:13:19;94742.75;;;9.25;100.00
2000;BME280;1001;48.87406500;9.59633600;2023-04-02T08:15:46;94742.41;;;9.33;100.00
2000;BME280;1001;48.87406500;9.59633600;2023-04-02T08:18:12;94740.56;;;9.45;100.00
2000;BME280;1001;48.87406500;9.59633600;2023-04-02T08:20:40;94749.31;;;9.51;100.00
2000;BME280;1001;48.87406500;9.59633600;2023-04-02T08:23:12;94755.31;;;9.40;100.00
2000;BME280;1001;48.87406500;9.59633600;2023-04-02T08:25:39;94757.97;;;9.68;100.00
2000;BME280;1001;48.87406500;9.59633600;2023-04-02T08:28:06;94761.16;;;9.82;100.00
2000;BME280;1001;48.87406500;9.59633600;2023-04-02T08:30:33;94758.38;;;9.88;100.00
2000;BME280;1001;48.87406500;9.59633600;2023-04-02T08:33:00;94762.41;;;9.79;100.00
2000;BME280;1001;48.87406500;9.59633600;2023-04-02T08:35:27;94767.59;;;9.91;100.00
2000;BME280;1001;48.87406500;9.59633600;2023-04-02T08:37:55;94778.28;;;9.78;100.00
2000;BME280;1001;48.87406500;9.59633600;2023-04-02T08:40:26;94772.63;;;9.69;100.00
2000;BME280;1001;48.87406500;9.59633600;2023-04-02T08:43:06;94780.91;;;9.66;100.00
2000;BME280;1001;48.87406500;9.59633600;2023-04-02T08:45:47;94786.34;;;9.76;100.00
2000;BME280;1001;48.87406500;9.59633600;2023-04-02T08:48:16;94786.78;;;9.85;100.00
2000;BME280;1001;48.87406500;9.59633600;2023-04-02T08:50:44;94785.50;;;9.87;100.00
2000;BME280;1001;48.87406500;9.59633600;2023-04-02T08:53:14;94793.59;;;9.86;100.00
2000;BME280;1001;48.87406500;9.59633600;2023-04-02T08:55:49;94790.34;;;10.07;100.00
2000;BME280;1001;48.87406500;9.59633600;2023-04-02T08:58:27;94799.66;;;10.14;99.36
2000;BME280;1001;48.87406500;9.59633600;2023-04-02T09:00:57;94810.47;;;10.35;99.82
2000;BME280;1001;48.87406500;9.59633600;2023-04-02T09:03:28;94810.69;;;10.16;99.22
2000;BME280;1001;48.87406500;9.59633600;2023-04-02T09:05:57;94815.19;;;10.21;98.70
2000;BME280;1001;48.87406500;9.59633600;2023-04-02T09:08:26;94818.88;;;10.37;98.99
2000;BME280;1001;48.87406500;9.59633600;2023-04-02T09:11:01;94814.41;;;10.20;98.41
2000;BME280;1001;48.87406500;9.59633600;2023-04-02T09:13:30;94819.53;;;10.15;99.39
2000;BME280;1001;48.87406500;9.59633600;2023-04-02T09:16:03;94815.56;;;10.13;100.00
2000;BME280;1001;48.87406500;9.59633600;2023-04-02T09:18:32;94823.97;;;10.15;100.00
2000;BME280;1001;48.87406500;9.59633600;2023-04-02T09:21:01;94833.69;;;10.31;100.00
2000;BME280;1001;48.87406500;9.59633600;2023-04-02T09:23:30;94826.28;;;10.56;100.00
2000;BME280;1001;48.87406500;9.59633600;2023-04-02T09:25:57;94828.78;;;11.13;98.76
2000;BME280;1001;48.87406500;9.59633600;2023-04-02T09:28:25;94833.31;;;11.01;94.83
2000;BME280;1001;48.87406500;9.59633600;2023-04-02T09:30:59;94841.56;;;11.26;94.84
2000;BME280;1001;48.87406500;9.59633600;2023-04-02T09:33:45;94841.88;;;11.29;93.44
2000;BME280;1001;48.87406500;9.59633600;2023-04-02T09:39:16;94851.94;;;10.43;95.64
2000;BME280;1001;48.87406500;9.59633600;2023-04-02T09:41:43;94854.63;;;9.96;96.12
2000;BME280;1001;48.87406500;9.59633600;2023-04-02T09:44:19;94856.75;;;9.59;100.00
2000;BME280;1001;48.87406500;9.59633600;2023-04-02T09:46:48;94856.94;;;9.93;100.00
2000;BME280;1001;48.87406500;9.59633600;2023-04-02T09:49:17;94864.16;;;10.54;97.36
2000;BME280;1001;48.87406500;9.59633600;2023-04-02T09:52:05;94865.94;;;10.81;97.13
2000;BME280;1001;48.87406500;9.59633600;2023-04-02T09:54:34;94864.63;;;11.12;96.34
2000;BME280;1001;48.87406500;9.59633600;2023-04-02T09:57:17;94872.66;;;11.72;94.95
2000;BME280;1001;48.87406500;9.59633600;2023-04-02T09:59:45;94867.38;;;11.89;92.60
2000;BME280;1001;48.87406500;9.59633600;2023-04-02T10:02:23;94872.91;;;11.54;89.76
2000;BME280;1001;48.87406500;9.59633600;2023-04-02T10:04:49;94876.53;;;11.20;89.63
2000;BME280;1001;48.87406500;9.59633600;2023-04-02T10:07:30;94877.09;;;11.38;90.83
2000;BME280;1001;48.87406500;9.59633600;2023-04-02T10:10:00;94885.19;;;11.37;90.45
2000;BME280;1001;48.87406500;9.59633600;2023-04-02T10:12:29;94885.56;;;11.29;92.68
2000;BME280;1001;48.87406500;9.59633600;2023-04-02T10:15:02;94893.34;;;11.57;91.58
2000;BME280;1001;48.87406500;9.59633600;2023-04-02T10:17:31;94890.16;;;11.88;91.30
2000;BME280;1001;48.87406500;9.59633600;2023-04-02T10:20:05;94891.31;;;11.97;92.42
2000;BME280;1001;48.87406500;9.59633600;2023-04-02T10:22:37;94890.56;;;11.97;90.99
2000;BME280;1001;48.87406500;9.59633600;2023-04-02T10:25:12;94899.38;;;11.57;91.07
2000;BME280;1001;48.87406500;9.59633600;2023-04-02T10:27:43;94895.03;;;11.30;93.04
2000;BME280;1001;48.87406500;9.59633600;2023-04-02T10:30:19;94899.78;;;11.00;93.55
2000;BME280;1001;48.87406500;9.59633600;2023-04-02T10:32:52;94912.81;;;10.83;95.14
2000;BME280;1001;48.87406500;9.59633600;2023-04-02T10:35:32;94903.28;;;10.77;95.07
2000;BME280;1001;48.87406500;9.59633600;2023-04-02T10:38:11;94905.84;;;10.88;96.02
2000;BME280;1001;48.87406500;9.59633600;2023-04-02T10:40:45;94900.66;;;11.22;92.87
2000;BME280;1001;48.87406500;9.59633600;2023-04-02T10:43:46;94906.03;;;11.65;92.51
2000;BME280;1001;48.87406500;9.59633600;2023-04-02T10:46:19;94909.78;;;11.69;89.94
2000;BME280;1001;48.87406500;9.59633600;2023-04-02T10:48:54;94919.50;;;11.69;89.47
2000;BME280;1001;48.87406500;9.59633600;2023-04-02T10:51:28;94918.72;;;11.07;88.77
2000;BME280;1001;48.87406500;9.59633600;2023-04-02T10:54:02;94919.81;;;10.66;89.31
2000;BME280;1001;48.87406500;9.59633600;2023-04-02T10:56:37;94928.56;;;10.71;90.44
2000;BME280;1001;48.87406500;9.59633600;2023-04-02T10:59:12;94931.13;;;10.83;91.73
2000;BME280;1001;48.87406500;9.59633600;2023-04-02T11:01:42;94933.28;;;10.86;92.52
2000;BME280;1001;48.87406500;9.59633600;2023-04-02T11:04:16;94933.34;;;10.91;94.20
2000;BME280;1001;48.87406500;9.59633600;2023-04-02T11:06:47;94937.31;;;10.65;93.65
2000;BME280;1001;48.87406500;9.59633600;2023-04-02T11:09:19;94939.53;;;10.85;92.33
2000;BME280;1001;48.87406500;9.59633600;2023-04-02T11:11:51;94935.34;;;10.72;93.12
2000;BME280;1001;48.87406500;9.59633600;2023-04-02T11:14:20;94946.75;;;10.66;92.82
2000;BME280;1001;48.87406500;9.59633600;2023-04-02T11:16:48;94952.38;;;10.47;92.94
2000;BME280;1001;48.87406500;9.59633600;2023-04-02T11:19:24;94949.84;;;10.12;93.90
2000;BME280;1001;48.87406500;9.59633600;2023-04-02T11:21:52;94945.34;;;10.47;93.44
2000;BME280;1001;48.87406500;9.59633600;2023-04-02T11:24:41;94949.09;;;10.79;93.21
2000;BME280;1001;48.87406500;9.59633600;2023-04-02T11:27:17;94949.09;;;10.79;92.28
2000;BME280;1001;48.87406500;9.59633600;2023-04-02T11:29:48;94951.41;;;11.21;91.69
2000;BME280;1001;48.87406500;9.59633600;2023-04-02T11:32:28;94956.19;;;12.07;88.85
2000;BME280;1001;48.87406500;9.59633600;2023-04-02T11:37:42;94959.47;;;12.57;84.06
2000;BME280;1001;48.87406500;9.59633600;2023-04-02T11:40:46;94966.19;;;12.70;82.54
2000;BME280;1001;48.87406500;9.59633600;2023-04-02T11:43:54;94966.19;;;12.70;83.94
2000;BME280;1001;48.87406500;9.59633600;2023-04-02T11:46:42;94969.34;;;12.93;80.64
2000;BME280;1001;48.87406500;9.59633600;2023-04-02T11:49:33;94969.56;;;12.87;80.69
2000;BME280;1001;48.87406500;9.59633600;2023-04-02T11:52:00;94979.44;;;13.28;79.71
2000;BME280;1001;48.87406500;9.59633600;2023-04-02T11:54:28;94979.50;;;13.60;76.89
2000;BME280;1001;48.87406500;9.59633600;2023-04-02T11:57:02;94977.91;;;13.32;75.99
2000;BME280;1001;48.87406500;9.59633600;2023-04-02T11:59:36;94979.25;;;13.08;76.10
2000;BME280;1001;48.87406500;9.59633600;2023-04-02T12:02:11;94985.38;;;12.32;79.43
2000;BME280;1001;48.87406500;9.59633600;2023-04-02T12:05:01;94980.47;;;12.57;82.03
2000;BME280;1001;48.87406500;9.59633600;2023-04-02T12:10:21;94985.84;;;12.67;78.02
2000;BME280;1001;48.87406500;9.59633600;2023-04-02T12:12:49;94978.50;;;12.91;78.76
2000;BME280;1001;48.87406500;9.59633600;2023-04-02T12:15:34;94983.75;;;12.91;77.98
2000;BME280;1001;48.87406500;9.59633600;2023-04-02T12:18:12;94991.63;;;12.69;81.62
2000;BME280;1001;48.87406500;9.59633600;2023-04-02T12:20:40;94990.13;;;12.13;82.79